sensor_id;sensor_type;location;lat;lon;timestamp;pressure;altitude;pressure_sealevel;temperature;humidity
59493;BME280;45497;43.996;22.876;2024-03-02T00:00:37;100914.44;;;9.92;65.80
59493;BME280;45497;43.996;22.876;2024-03-02T00:03:04;100926.50;;;9.86;65.82
59493;BME280;45497;43.996;22.876;2024-03-02T00:05:29;100931.66;;;9.88;66.11
59493;BME280;45497;43.996;22.876;2024-03-02T00:07:57;100928.69;;;9.99;65.62
59493;BME280;45497;43.996;22.876;2024-03-02T00:10:39;100934.00;;;9.99;65.57
59493;BME280;45497;43.996;22.876;2024-03-02T00:13:06;100928.69;;;9.99;65.93
59493;BME280;45497;43.996;22.876;2024-03-02T00:15:47;100932.50;;;9.97;65.27
59493;BME280;45497;43.996;22.876;2024-03-02T00:18:18;100930.69;;;9.89;65.38
59493;BME280;45497;43.996;22.876;2024-03-02T00:21:04;100933.84;;;10.01;65.35
59493;BME280;45497;43.996;22.876;2024-03-02T00:23:34;100920.28;;;10.04;65.06
59493;BME280;45497;43.996;22.876;2024-03-02T00:26:00;100923.09;;;10.02;65.30
59493;BME280;45497;43.996;22.876;2024-03-02T00:28:31;100914.34;;;10.10;65.01
59493;BME280;45497;43.996;22.876;2024-03-02T00:31:01;100910.84;;;10.01;65.29
59493;BME280;45497;43.996;22.876;2024-03-02T00:33:31;100909.84;;;10.02;64.94
59493;BME280;45497;43.996;22.876;2024-03-02T00:35:57;100910.34;;;9.98;65.20
59493;BME280;45497;43.996;22.876;2024-03-02T00:38:23;100899.56;;;9.91;65.02
59493;BME280;45497;43.996;22.876;2024-03-02T00:40:49;100904.19;;;9.97;65.14
59493;BME280;45497;43.996;22.876;2024-03-02T00:46:15;100917.31;;;10.07;65.06
59493;BME280;45497;43.996;22.876;2024-03-02T00:49:02;100919.13;;;10.06;64.64
59493;BME280;45497;43.996;22.876;2024-03-02T00:51:33;100906.22;;;10.11;64.56
59493;BME280;45497;43.996;22.876;2024-03-02T00:54:01;100903.72;;;10.02;64.58
59493;BME280;45497;43.996;22.876;2024-03-02T00:56:31;100910.66;;;10.03;64.47
59493;BME280;45497;43.996;22.876;2024-03-02T00:58:57;100897.13;;;9.98;64.97
59493;BME280;45497;43.996;22.876;2024-03-02T01:01:23;100909.50;;;9.89;64.91
59493;BME280;45497;43.996;22.876;2024-03-02T01:03:49;100906.59;;;9.74;65.21
59493;BME280;45497;43.996;22.876;2024-03-02T01:06:18;100899.50;;;9.74;65.43
59493;BME280;45497;43.996;22.876;2024-03-02T01:11:50;100912.41;;;9.77;65.69
59493;BME280;45497;43.996;22.876;2024-03-02T01:14:16;100910.78;;;9.85;65.63
59493;BME280;45497;43.996;22.876;2024-03-02T01:16:41;100907.81;;;9.80;65.57
59493;BME280;45497;43.996;22.876;2024-03-02T01:19:08;100907.78;;;9.71;65.92
59493;BME280;45497;43.996;22.876;2024-03-02T01:21:35;100906.09;;;9.70;66.03
59493;BME280;45497;43.996;22.876;2024-03-02T01:24:06;100893.03;;;9.69;66.08
59493;BME280;45497;43.996;22.876;2024-03-02T01:26:31;100916.41;;;9.82;65.86
59493;BME280;45497;43.996;22.876;2024-03-02T01:28:57;100897.84;;;9.65;66.03
59493;BME280;45497;43.996;22.876;2024-03-02T01:31:25;100906.78;;;9.72;65.98
59493;BME280;45497;43.996;22.876;2024-03-02T01:33:50;100913.94;;;9.80;65.63
59493;BME280;45497;43.996;22.876;2024-03-02T01:36:16;100915.31;;;9.92;65.47
59493;BME280;45497;43.996;22.876;2024-03-02T01:38:42;100894.06;;;9.84;65.41
59493;BME280;45497;43.996;22.876;2024-03-02T01:41:07;100903.19;;;9.90;65.56
59493;BME280;45497;43.996;22.876;2024-03-02T01:43:33;100903.56;;;10.03;65.07
59493;BME280;45497;43.996;22.876;2024-03-02T01:46:08;100902.59;;;10.12;64.69
59493;BME280;45497;43.996;22.876;2024-03-02T01:48:34;100897.66;;;10.18;64.56
59493;BME280;45497;43.996;22.876;2024-03-02T01:51:00;100895.81;;;10.18;64.62
59493;BME280;45497;43.996;22.876;2024-03-02T01:53:37;100895.66;;;10.20;64.31
59493;BME280;45497;43.996;22.876;2024-03-02T01:56:03;100904.78;;;10.25;64.66
59493;BME280;45497;43.996;22.876;2024-03-02T01:58:29;100891.38;;;10.27;64.05
59493;BME280;45497;43.996;22.876;2024-03-02T02:00:55;100896.81;;;10.25;64.09
59493;BME280;45497;43.996;22.876;2024-03-02T02:03:20;100906.63;;;10.33;64.38
59493;BME280;45497;43.996;22.876;2024-03-02T02:05:56;100904.47;;;10.37;64.22
59493;BME280;45497;43.996;22.876;2024-03-02T02:08:22;100904.84;;;10.33;63.95
59493;BME280;45497;43.996;22.876;2024-03-02T02:10:48;100907.44;;;10.25;64.17
59493;BME280;45497;43.996;22.876;2024-03-02T02:13:13;100911.41;;;10.29;64.25
59493;BME280;45497;43.996;22.876;2024-03-02T02:15:40;100907.78;;;10.30;64.22
59493;BME280;45497;43.996;22.876;2024-03-02T02:18:06;100896.47;;;10.20;64.12
59493;BME280;45497;43.996;22.876;2024-03-02T02:20:34;100907.41;;;10.09;64.98
59493;BME280;45497;43.996;22.876;2024-03-02T02:23:01;100897.28;;;10.04;64.87
59493;BME280;45497;43.996;22.876;2024-03-02T02:25:29;100908.91;;;10.20;64.73
59493;BME280;45497;43.996;22.876;2024-03-02T02:27:56;100896.47;;;10.12;64.25
59493;BME280;45497;43.996;22.876;2024-03-02T02:30:26;100888.34;;;10.05;64.51
59493;BME280;45497;43.996;22.876;2024-03-02T02:32:52;100896.28;;;10.13;64.83
59493;BME280;45497;43.996;22.876;2024-03-02T02:35:24;100902.25;;;10.07;64.68
59493;BME280;45497;43.996;22.876;2024-03-02T02:37:50;100891.13;;;9.95;64.68
59493;BME280;45497;43.996;22.876;2024-03-02T02:40:18;100899.91;;;9.96;65.07
59493;BME280;45497;43.996;22.876;2024-03-02T02:42:44;100896.75;;;10.01;64.73
59493;BME280;45497;43.996;22.876;2024-03-02T02:45:10;100892.63;;;9.98;64.91
59493;BME280;45497;43.996;22.876;2024-03-02T02:47:39;100906.38;;;10.02;64.85
59493;BME280;45497;43.996;22.876;2024-03-02T02:50:08;100896.56;;;9.86;65.08
59493;BME280;45497;43.996;22.876;2024-03-02T02:52:48;100894.56;;;9.80;65.40
59493;BME280;45497;43.996;22.876;2024-03-02T02:55:13;100901.00;;;9.77;65.42
59493;BME280;45497;43.996;22.876;2024-03-02T02:57:42;100902.34;;;9.81;65.31
59493;BME280;45497;43.996;22.876;2024-03-02T03:00:14;100892.91;;;9.79;65.19
59493;BME280;45497;43.996;22.876;2024-03-02T03:02:48;100892.91;;;9.79;65.21
59493;BME280;45497;43.996;22.876;2024-03-02T03:05:19;100884.41;;;9.59;65.96
59493;BME280;45497;43.996;22.876;2024-03-02T03:07:48;100889.19;;;9.63;65.98
59493;BME280;45497;43.996;22.876;2024-03-02T03:10:16;100889.84;;;9.57;65.90
59493;BME280;45497;43.996;22.876;2024-03-02T03:12:42;100890.03;;;9.64;66.13
59493;BME280;45497;43.996;22.876;2024-03-02T03:15:09;100897.69;;;9.75;65.71
59493;BME280;45497;43.996;22.876;2024-03-02T03:17:35;100883.94;;;9.71;65.61
59493;BME280;45497;43.996;22.876;2024-03-02T03:20:03;100885.78;;;9.71;66.06
59493;BME280;45497;43.996;22.876;2024-03-02T03:22:30;100881.44;;;9.70;65.48
59493;BME280;45497;43.996;22.876;2024-03-02T03:24:57;100887.75;;;9.69;65.64
59493;BME280;45497;43.996;22.876;2024-03-02T03:27:22;100877.13;;;9.61;65.64
59493;BME280;45497;43.996;22.876;2024-03-02T03:29:48;100878.59;;;9.55;65.93
59493;BME280;45497;43.996;22.876;2024-03-02T03:32:14;100870.66;;;9.55;66.00
59493;BME280;45497;43.996;22.876;2024-03-02T03:34:47;100884.84;;;9.54;66.15
59493;BME280;45497;43.996;22.876;2024-03-02T03:37:14;100879.56;;;9.54;66.32
59493;BME280;45497;43.996;22.876;2024-03-02T03:39:40;100883.91;;;9.63;65.95
59493;BME280;45497;43.996;22.876;2024-03-02T03:42:06;100877.28;;;9.59;65.99
59493;BME280;45497;43.996;22.876;2024-03-02T03:44:37;100887.72;;;9.61;65.80
59493;BME280;45497;43.996;22.876;2024-03-02T03:47:04;100864.81;;;9.43;66.43
59493;BME280;45497;43.996;22.876;2024-03-02T03:49:37;100886.53;;;9.55;66.14
59493;BME280;45497;43.996;22.876;2024-03-02T03:52:03;100884.34;;;9.50;66.21
59493;BME280;45497;43.996;22.876;2024-03-02T03:54:29;100868.47;;;9.50;66.23
59493;BME280;45497;43.996;22.876;2024-03-02T03:56:55;100881.53;;;9.44;66.48
59493;BME280;45497;43.996;22.876;2024-03-02T03:59:23;100871.56;;;9.37;66.75
59493;BME280;45497;43.996;22.876;2024-03-02T04:01:49;100896.88;;;9.40;67.07
59493;BME280;45497;43.996;22.876;2024-03-02T04:04:15;100897.13;;;9.29;66.87
59493;BME280;45497;43.996;22.876;2024-03-02T04:06:40;100883.25;;;9.27;67.13
59493;BME280;45497;43.996;22.876;2024-03-02T04:09:14;100890.34;;;9.26;67.20
59493;BME280;45497;43.996;22.876;2024-03-02T04:11:40;100899.03;;;9.36;66.98
59493;BME280;45497;43.996;22.876;2024-03-02T04:14:07;100897.50;;;9.34;66.79
59493;BME280;45497;43.996;22.876;2024-03-02T04:16:33;100888.06;;;9.31;67.15
59493;BME280;45497;43.996;22.876;2024-03-02T04:18:58;100908.06;;;9.26;67.18
59493;BME280;45497;43.996;22.876;2024-03-02T04:21:26;100904.72;;;9.24;67.69
59493;BME280;45497;43.996;22.876;2024-03-02T04:23:52;100902.94;;;9.32;67.19
59493;BME280;45497;43.996;22.876;2024-03-02T04:26:18;100910.72;;;9.34;67.04
59493;BME280;45497;43.996;22.876;2024-03-02T04:28:47;100911.41;;;9.36;67.00
59493;BME280;45497;43.996;22.876;2024-03-02T04:31:18;100902.63;;;9.35;66.66
59493;BME280;45497;43.996;22.876;2024-03-02T04:33:43;100907.25;;;9.33;66.89
59493;BME280;45497;43.996;22.876;2024-03-02T04:36:09;100911.88;;;9.31;67.25
59493;BME280;45497;43.996;22.876;2024-03-02T04:38:36;100907.88;;;9.27;67.22
59493;BME280;45497;43.996;22.876;2024-03-02T04:41:01;100912.41;;;9.35;67.27
59493;BME280;45497;43.996;22.876;2024-03-02T04:43:30;100923.66;;;9.37;66.37
59493;BME280;45497;43.996;22.876;2024-03-02T04:45:58;100920.63;;;9.32;66.77
59493;BME280;45497;43.996;22.876;2024-03-02T04:48:24;100911.72;;;9.33;67.04
59493;BME280;45497;43.996;22.876;2024-03-02T04:50:50;100920.91;;;9.21;67.59
59493;BME280;45497;43.996;22.876;2024-03-02T04:53:16;100925.19;;;9.22;67.05
59493;BME280;45497;43.996;22.876;2024-03-02T04:55:41;100922.53;;;9.13;67.13
59493;BME280;45497;43.996;22.876;2024-03-02T04:58:11;100923.72;;;9.19;67.20
59493;BME280;45497;43.996;22.876;2024-03-02T05:00:37;100926.13;;;9.12;67.52
59493;BME280;45497;43.996;22.876;2024-03-02T05:03:03;100929.53;;;9.23;67.40
59493;BME280;45497;43.996;22.876;2024-03-02T05:05:29;100931.84;;;9.26;67.16
59493;BME280;45497;43.996;22.876;2024-03-02T05:07:55;100924.06;;;9.24;67.18
59493;BME280;45497;43.996;22.876;2024-03-02T05:10:20;100935.19;;;9.28;67.09
59493;BME280;45497;43.996;22.876;2024-03-02T05:12:46;100927.19;;;9.19;67.22
59493;BME280;45497;43.996;22.876;2024-03-02T05:15:14;100921.47;;;9.06;67.20
59493;BME280;45497;43.996;22.876;2024-03-02T05:17:41;100935.22;;;9.10;67.40
59493;BME280;45497;43.996;22.876;2024-03-02T05:20:10;100936.53;;;9.06;66.91
59493;BME280;45497;43.996;22.876;2024-03-02T05:22:37;100926.28;;;9.11;67.44
59493;BME280;45497;43.996;22.876;2024-03-02T05:25:06;100943.91;;;9.20;67.46
59493;BME280;45497;43.996;22.876;2024-03-02T05:27:32;100946.69;;;9.18;67.39
59493;BME280;45497;43.996;22.876;2024-03-02T05:29:59;100924.56;;;9.02;67.19
59493;BME280;45497;43.996;22.876;2024-03-02T05:32:27;100942.84;;;9.13;67.28
59493;BME280;45497;43.996;22.876;2024-03-02T05:34:53;100940.91;;;9.23;67.20
59493;BME280;45497;43.996;22.876;2024-03-02T05:37:21;100944.56;;;9.22;67.17
59493;BME280;45497;43.996;22.876;2024-03-02T05:39:48;100944.88;;;9.19;66.97
59493;BME280;45497;43.996;22.876;2024-03-02T05:42:15;100943.63;;;9.31;67.26
59493;BME280;45497;43.996;22.876;2024-03-02T05:44:43;100933.19;;;9.30;66.70
59493;BME280;45497;43.996;22.876;2024-03-02T05:47:10;100950.97;;;9.19;67.11
59493;BME280;45497;43.996;22.876;2024-03-02T05:49:36;100948.81;;;9.15;67.01
59493;BME280;45497;43.996;22.876;2024-03-02T05:52:01;100957.31;;;9.27;67.44
59493;BME280;45497;43.996;22.876;2024-03-02T05:54:28;100950.16;;;9.19;67.47
59493;BME280;45497;43.996;22.876;2024-03-02T05:56:54;100939.78;;;9.26;67.49
59493;BME280;45497;43.996;22.876;2024-03-02T05:59:22;100942.59;;;9.24;67.17
59493;BME280;45497;43.996;22.876;2024-03-02T06:01:51;100953.06;;;9.08;67.41
59493;BME280;45497;43.996;22.876;2024-03-02T06:04:18;100954.34;;;9.04;68.13
59493;BME280;45497;43.996;22.876;2024-03-02T06:06:46;100961.19;;;9.14;67.57
59493;BME280;45497;43.996;22.876;2024-03-02T06:09:12;100936.34;;;9.07;67.70
59493;BME280;45497;43.996;22.876;2024-03-02T06:11:39;100952.13;;;9.17;67.29
59493;BME280;45497;43.996;22.876;2024-03-02T06:14:05;100952.03;;;9.27;67.30
59493;BME280;45497;43.996;22.876;2024-03-02T06:16:32;100956.34;;;9.28;67.12
59493;BME280;45497;43.996;22.876;2024-03-02T06:18:58;100956.53;;;9.34;67.15
59493;BME280;45497;43.996;22.876;2024-03-02T06:21:24;100955.59;;;9.17;67.68
59493;BME280;45497;43.996;22.876;2024-03-02T06:23:53;100967.38;;;9.23;67.75
59493;BME280;45497;43.996;22.876;2024-03-02T06:26:19;100957.56;;;9.15;67.75
59493;BME280;45497;43.996;22.876;2024-03-02T06:28:45;100955.97;;;9.23;67.84
59493;BME280;45497;43.996;22.876;2024-03-02T06:31:11;100959.94;;;9.27;67.66
59493;BME280;45497;43.996;22.876;2024-03-02T06:33:37;100962.09;;;9.23;67.21
59493;BME280;45497;43.996;22.876;2024-03-02T06:36:03;100971.31;;;9.19;67.78
59493;BME280;45497;43.996;22.876;2024-03-02T06:38:29;100972.09;;;9.11;67.83
59493;BME280;45497;43.996;22.876;2024-03-02T06:40:57;100964.47;;;9.08;68.10
59493;BME280;45497;43.996;22.876;2024-03-02T06:43:23;100978.22;;;9.12;67.99
59493;BME280;45497;43.996;22.876;2024-03-02T06:45:50;100970.66;;;9.17;67.66
59493;BME280;45497;43.996;22.876;2024-03-02T06:48:16;100977.66;;;9.26;67.87
59493;BME280;45497;43.996;22.876;2024-03-02T06:53:30;100984.84;;;9.16;67.55
59493;BME280;45497;43.996;22.876;2024-03-02T06:56:01;100998.91;;;9.16;67.81
59493;BME280;45497;43.996;22.876;2024-03-02T06:58:32;100986.00;;;9.13;67.90
59493;BME280;45497;43.996;22.876;2024-03-02T07:01:00;100989.69;;;9.21;67.62
59493;BME280;45497;43.996;22.876;2024-03-02T07:03:49;100990.50;;;9.21;67.99
59493;BME280;45497;43.996;22.876;2024-03-02T07:06:15;101002.28;;;9.27;68.16
59493;BME280;45497;43.996;22.876;2024-03-02T07:09:11;100997.81;;;9.27;67.46
59493;BME280;45497;43.996;22.876;2024-03-02T07:15:23;100993.31;;;9.46;67.29
59493;BME280;45497;43.996;22.876;2024-03-02T07:18:12;101003.28;;;9.52;67.26
59493;BME280;45497;43.996;22.876;2024-03-02T07:20:45;101005.25;;;9.50;67.46
59493;BME280;45497;43.996;22.876;2024-03-02T07:23:14;101004.31;;;9.59;67.21
59493;BME280;45497;43.996;22.876;2024-03-02T07:25:40;101005.03;;;9.69;66.91
59493;BME280;45497;43.996;22.876;2024-03-02T07:28:10;101003.53;;;9.67;66.48
59493;BME280;45497;43.996;22.876;2024-03-02T07:30:39;101006.28;;;9.57;67.24
59493;BME280;45497;43.996;22.876;2024-03-02T07:33:08;101007.78;;;9.60;67.02
59493;BME280;45497;43.996;22.876;2024-03-02T07:35:33;101011.13;;;9.62;67.18
59493;BME280;45497;43.996;22.876;2024-03-02T07:38:00;101016.97;;;9.73;66.90
59493;BME280;45497;43.996;22.876;2024-03-02T07:40:26;101027.81;;;9.88;66.71
59493;BME280;45497;43.996;22.876;2024-03-02T07:42:55;101021.13;;;9.76;66.54
59493;BME280;45497;43.996;22.876;2024-03-02T07:45:21;101025.16;;;9.88;66.46
59493;BME280;45497;43.996;22.876;2024-03-02T07:47:47;101039.59;;;9.94;66.13
59493;BME280;45497;43.996;22.876;2024-03-02T07:50:16;101032.94;;;9.90;66.37
59493;BME280;45497;43.996;22.876;2024-03-02T07:52:41;101036.00;;;10.03;66.54
59493;BME280;45497;43.996;22.876;2024-03-02T07:55:07;101036.16;;;10.02;66.15
59493;BME280;45497;43.996;22.876;2024-03-02T07:57:42;101028.66;;;9.89;66.30
59493;BME280;45497;43.996;22.876;2024-03-02T08:00:30;101031.28;;;9.89;66.61
59493;BME280;45497;43.996;22.876;2024-03-02T08:02:56;101028.50;;;9.90;66.34
59493;BME280;45497;43.996;22.876;2024-03-02T08:05:22;101042.78;;;9.98;66.14
59493;BME280;45497;43.996;22.876;2024-03-02T08:07:48;101042.72;;;9.89;66.79
59493;BME280;45497;43.996;22.876;2024-03-02T08:10:32;101053.22;;;10.07;66.38
59493;BME280;45497;43.996;22.876;2024-03-02T08:13:02;101046.09;;;10.00;66.64
59493;BME280;45497;43.996;22.876;2024-03-02T08:15:27;101036.97;;;10.02;66.07
59493;BME280;45497;43.996;22.876;2024-03-02T08:17:53;101039.69;;;10.10;66.41
59493;BME280;45497;43.996;22.876;2024-03-02T08:20:19;101043.94;;;10.03;66.09
59493;BME280;45497;43.996;22.876;2024-03-02T08:22:47;101044.19;;;9.84;66.57
59493;BME280;45497;43.996;22.876;2024-03-02T08:25:13;101040.19;;;9.80;67.01
59493;BME280;45497;43.996;22.876;2024-03-02T08:27:40;101042.13;;;9.77;66.68
59493;BME280;45497;43.996;22.876;2024-03-02T08:30:06;101039.69;;;9.84;67.23
59493;BME280;45497;43.996;22.876;2024-03-02T08:32:33;101032.13;;;9.89;66.78
59493;BME280;45497;43.996;22.876;2024-03-02T08:34:59;101039.25;;;9.97;66.73
59493;BME280;45497;43.996;22.876;2024-03-02T08:37:27;101042.91;;;9.96;66.13
59493;BME280;45497;43.996;22.876;2024-03-02T08:39:56;101032.72;;;10.09;66.57
59493;BME280;45497;43.996;22.876;2024-03-02T08:42:22;101055.28;;;10.22;66.10
59493;BME280;45497;43.996;22.876;2024-03-02T08:44:48;101036.91;;;10.20;66.13
59493;BME280;45497;43.996;22.876;2024-03-02T08:47:14;101042.50;;;10.17;66.05
59493;BME280;45497;43.996;22.876;2024-03-02T08:49:43;101037.69;;;10.12;66.62
59493;BME280;45497;43.996;22.876;2024-03-02T08:52:08;101044.84;;;10.20;66.30
59493;BME280;45497;43.996;22.876;2024-03-02T08:54:38;101042.09;;;10.30;66.22
59493;BME280;45497;43.996;22.876;2024-03-02T08:57:04;101041.72;;;10.25;66.42
59493;BME280;45497;43.996;22.876;2024-03-02T08:59:32;101042.53;;;10.25;66.06
59493;BME280;45497;43.996;22.876;2024-03-02T09:01:59;101037.59;;;10.30;65.94
59493;BME280;45497;43.996;22.876;2024-03-02T09:04:24;101036.50;;;10.41;65.91
59493;BME280;45497;43.996;22.876;2024-03-02T09:06:52;101041.50;;;10.52;65.75
59493;BME280;45497;43.996;22.876;2024-03-02T09:09:18;101050.13;;;10.55;65.62
59493;BME280;45497;43.996;22.876;2024-03-02T09:11:46;101050.63;;;10.50;65.90
59493;BME280;45497;43.996;22.876;2024-03-02T09:14:12;101041.81;;;10.49;65.76
59493;BME280;45497;43.996;22.876;2024-03-02T09:16:40;101049.91;;;10.40;65.42
59493;BME280;45497;43.996;22.876;2024-03-02T09:22:56;101046.81;;;10.18;65.95
59493;BME280;45497;43.996;22.876;2024-03-02T09:25:22;101048.97;;;10.14;66.30
59493;BME280;45497;43.996;22.876;2024-03-02T09:27:48;101044.53;;;10.23;66.34
59493;BME280;45497;43.996;22.876;2024-03-02T09:30:20;101044.78;;;10.38;66.09
59493;BME280;45497;43.996;22.876;2024-03-02T09:32:48;101049.72;;;10.33;66.36
59493;BME280;45497;43.996;22.876;2024-03-02T09:35:17;101038.00;;;10.36;65.74
59493;BME280;45497;43.996;22.876;2024-03-02T09:37:43;101048.50;;;10.27;65.63
59493;BME280;45497;43.996;22.876;2024-03-02T09:40:10;101051.09;;;10.37;66.08
59493;BME280;45497;43.996;22.876;2024-03-02T09:42:36;101056.03;;;10.40;66.04
59493;BME280;45497;43.996;22.876;2024-03-02T09:45:22;101043.75;;;10.31;65.95
59493;BME280;45497;43.996;22.876;2024-03-02T09:47:52;101046.59;;;10.38;66.15
59493;BME280;45497;43.996;22.876;2024-03-02T09:50:18;101048.47;;;10.54;65.78
59493;BME280;45497;43.996;22.876;2024-03-02T09:52:44;101042.28;;;10.37;65.67
59493;BME280;45497;43.996;22.876;2024-03-02T09:55:17;101052.94;;;10.53;65.79
59493;BME280;45497;43.996;22.876;2024-03-02T09:57:46;101050.47;;;10.60;65.83
59493;BME280;45497;43.996;22.876;2024-03-02T10:00:12;101049.31;;;10.54;65.65
59493;BME280;45497;43.996;22.876;2024-03-02T10:02:42;101040.53;;;10.54;66.14
59493;BME280;45497;43.996;22.876;2024-03-02T10:05:26;101048.13;;;10.57;65.71
59493;BME280;45497;43.996;22.876;2024-03-02T10:08:02;101057.25;;;10.54;65.45
59493;BME280;45497;43.996;22.876;2024-03-02T10:10:41;101045.16;;;10.51;65.59
59493;BME280;45497;43.996;22.876;2024-03-02T10:13:13;101058.53;;;10.42;65.73
59493;BME280;45497;43.996;22.876;2024-03-02T10:15:40;101059.88;;;10.46;66.30
59493;BME280;45497;43.996;22.876;2024-03-02T10:18:13;101064.66;;;10.42;65.80
59493;BME280;45497;43.996;22.876;2024-03-02T10:20:40;101055.25;;;10.48;65.61
59493;BME280;45497;43.996;22.876;2024-03-02T10:23:10;101051.56;;;10.32;66.12
59493;BME280;45497;43.996;22.876;2024-03-02T10:25:42;101036.78;;;10.30;66.21
59493;BME280;45497;43.996;22.876;2024-03-02T10:28:09;101046.63;;;10.46;65.92
59493;BME280;45497;43.996;22.876;2024-03-02T10:30:53;101044.47;;;10.41;65.98
59493;BME280;45497;43.996;22.876;2024-03-02T10:33:19;101041.38;;;10.28;65.84
59493;BME280;45497;43.996;22.876;2024-03-02T10:35:45;101036.75;;;10.22;65.96
59493;BME280;45497;43.996;22.876;2024-03-02T10:38:15;101033.72;;;10.17;66.36
59493;BME280;45497;43.996;22.876;2024-03-02T10:40:47;101038.56;;;10.29;66.27
59493;BME280;45497;43.996;22.876;2024-03-02T10:43:17;101034.44;;;10.27;65.99
59493;BME280;45497;43.996;22.876;2024-03-02T10:46:07;101046.59;;;10.03;66.46
59493;BME280;45497;43.996;22.876;2024-03-02T11:09:06;101019.31;;;10.54;65.53
59493;BME280;45497;43.996;22.876;2024-03-02T11:14:52;101004.41;;;10.44;66.03
59493;BME280;45497;43.996;22.876;2024-03-02T11:17:37;101020.50;;;10.59;65.97
59493;BME280;45497;43.996;22.876;2024-03-02T11:47:17;101003.59;;;10.68;65.57
59493;BME280;45497;43.996;22.876;2024-03-02T11:49:49;101006.75;;;10.72;65.19
59493;BME280;45497;43.996;22.876;2024-03-02T11:52:16;101003.44;;;10.70;65.12
59493;BME280;45497;43.996;22.876;2024-03-02T11:54:48;100994.19;;;10.82;65.47
59493;BME280;45497;43.996;22.876;2024-03-02T11:57:16;100995.50;;;10.86;65.29
59493;BME280;45497;43.996;22.876;2024-03-02T11:59:51;100999.47;;;11.07;65.24
59493;BME280;45497;43.996;22.876;2024-03-02T12:02:45;100996.31;;;11.03;64.78
59493;BME280;45497;43.996;22.876;2024-03-02T12:05:17;100994.53;;;11.04;64.90
59493;BME280;45497;43.996;22.876;2024-03-02T12:07:48;100998.31;;;11.01;65.24
59493;BME280;45497;43.996;22.876;2024-03-02T12:10:31;101008.25;;;10.99;65.13
59493;BME280;45497;43.996;22.876;2024-03-02T12:15:29;100994.31;;;10.89;65.46
59493;BME280;45497;43.996;22.876;2024-03-02T12:18:15;100988.53;;;10.94;65.33
59493;BME280;45497;43.996;22.876;2024-03-02T12:20:40;100988.38;;;11.03;65.40
59493;BME280;45497;43.996;22.876;2024-03-02T12:23:08;100990.50;;;11.16;65.02
59493;BME280;45497;43.996;22.876;2024-03-02T12:25:34;101001.47;;;11.21;64.66
59493;BME280;45497;43.996;22.876;2024-03-02T12:28:01;100998.16;;;11.19;65.00
59493;BME280;45497;43.996;22.876;2024-03-02T12:30:29;100993.03;;;11.09;64.78
59493;BME280;45497;43.996;22.876;2024-03-02T12:32:55;100996.66;;;11.17;64.80
59493;BME280;45497;43.996;22.876;2024-03-02T12:35:29;100987.19;;;11.14;64.80
59493;BME280;45497;43.996;22.876;2024-03-02T12:37:58;100994.50;;;11.20;64.67
59493;BME280;45497;43.996;22.876;2024-03-02T12:40:24;100987.19;;;11.31;64.55
59493;BME280;45497;43.996;22.876;2024-03-02T12:42:52;100994.44;;;11.53;64.36
59493;BME280;45497;43.996;22.876;2024-03-02T12:45:23;100986.31;;;11.55;64.29
59493;BME280;45497;43.996;22.876;2024-03-02T12:47:51;100996.13;;;11.38;64.42
59493;BME280;45497;43.996;22.876;2024-03-02T12:50:23;100988.97;;;11.46;64.51
59493;BME280;45497;43.996;22.876;2024-03-02T12:52:53;100980.19;;;11.54;64.20
59493;BME280;45497;43.996;22.876;2024-03-02T12:55:20;100984.81;;;11.52;64.02
59493;BME280;45497;43.996;22.876;2024-03-02T12:57:50;100975.22;;;11.43;63.95
59493;BME280;45497;43.996;22.876;2024-03-02T13:00:18;100988.97;;;11.55;63.98
59493;BME280;45497;43.996;22.876;2024-03-02T13:02:50;100996.41;;;11.67;64.13
59493;BME280;45497;43.996;22.876;2024-03-02T13:05:16;100986.28;;;11.71;63.98
59493;BME280;45497;43.996;22.876;2024-03-02T13:07:46;100976.63;;;11.78;64.00
59493;BME280;45497;43.996;22.876;2024-03-02T13:10:14;100996.69;;;11.89;63.87
59493;BME280;45497;43.996;22.876;2024-03-02T13:12:45;100991.06;;;11.92;63.67
59493;BME280;45497;43.996;22.876;2024-03-02T13:15:16;100979.59;;;11.83;63.65
59493;BME280;45497;43.996;22.876;2024-03-02T13:17:42;100991.84;;;12.01;63.87
59493;BME280;45497;43.996;22.876;2024-03-02T13:20:12;100991.00;;;12.09;63.36
59493;BME280;45497;43.996;22.876;2024-03-02T13:22:49;100983.84;;;12.01;63.46
59493;BME280;45497;43.996;22.876;2024-03-02T13:25:19;100992.03;;;11.99;63.27
59493;BME280;45497;43.996;22.876;2024-03-02T13:27:44;100996.47;;;12.07;63.30
59493;BME280;45497;43.996;22.876;2024-03-02T13:30:13;100988.19;;;12.02;62.90
59493;BME280;45497;43.996;22.876;2024-03-02T13:32:44;101000.13;;;12.06;63.30
59493;BME280;45497;43.996;22.876;2024-03-02T13:35:12;100982.84;;;12.10;62.93
59493;BME280;45497;43.996;22.876;2024-03-02T13:37:38;100999.78;;;12.09;62.80
59493;BME280;45497;43.996;22.876;2024-03-02T13:40:09;100992.94;;;12.15;62.69
59493;BME280;45497;43.996;22.876;2024-03-02T13:42:47;100999.69;;;12.26;62.48
59493;BME280;45497;43.996;22.876;2024-03-02T13:45:16;100989.53;;;12.29;62.47
59493;BME280;45497;43.996;22.876;2024-03-02T13:47:53;100990.94;;;12.17;62.10
59493;BME280;45497;43.996;22.876;2024-03-02T13:50:21;100993.81;;;12.07;62.34
59493;BME280;45497;43.996;22.876;2024-03-02T13:52:56;100998.31;;;12.07;62.36
59493;BME280;45497;43.996;22.876;2024-03-02T13:55:22;101003.25;;;12.10;62.02
59493;BME280;45497;43.996;22.876;2024-03-02T13:57:57;100998.75;;;12.18;62.22
59493;BME280;45497;43.996;22.876;2024-03-02T14:00:28;100996.16;;;12.33;62.02
59493;BME280;45497;43.996;22.876;2024-03-02T14:02:57;100988.50;;;12.38;61.60